MV Finola — OULQ2 — position and weather

sailwx.info

Track history (hours):
 
Tides and Currents Weather Stations Pressure Air Temp Water Temp Dewpoint Dewpoint Depression Visibility Wind Speed Wind Dir Waves Ship Positions

MV Finola

Last reported at 2014-Aug-21 05:32 UTC. Time now 2014-Aug-21 06:21 UTC.
Position S 12°11' E 130°07'.

Length 86 m; draft 3.5 m.

Type: Cargo ship. MMSI: 219483000.

Date/timePositionNaut miles runAvg speedWind from/ knotsBaromVisibWave heightAir tempDewpointWater temp
2014-Aug-21 05:32S 12°11' E 130°07'1111.4
2014-Aug-21 04:33S 12°14' E 130°18'1111.4
2014-Aug-21 03:33S 12°16' E 130°29'1111.2
2014-Aug-21 02:33S 12°19' E 130°40'1111.0
2014-Aug-21 01:33S 12°27' E 130°48'5 5.4
2014-Aug-21 00:33S 12°29' E 130°53'0 0.0
2014-Aug-20 23:33S 12°29' E 130°53'0 0.0
2014-Aug-20 22:33S 12°29' E 130°53'0 0.0
2014-Aug-20 21:24S 12°29' E 130°53'0 0.0
2014-Aug-20 20:24S 12°29' E 130°53'0 0.0
2014-Aug-20 19:24S 12°29' E 130°53'0 0.0
2014-Aug-20 18:27S 12°29' E 130°53'0 0.0
2014-Aug-20 17:26S 12°29' E 130°53'0 0.0
2014-Aug-20 16:26S 12°29' E 130°53'0 0.0
2014-Aug-20 15:26S 12°29' E 130°53'0 0.0
2014-Aug-20 14:23S 12°29' E 130°53'0 0.0
2014-Aug-20 13:29S 12°29' E 130°53'0 0.0
2014-Aug-20 12:29S 12°29' E 130°53'0 0.0
2014-Aug-20 11:29S 12°29' E 130°53'0 0.0
2014-Aug-20 10:29S 12°29' E 130°53'0 0.0
2014-Aug-20 09:32S 12°29' E 130°53'0 0.0
2014-Aug-20 08:32S 12°29' E 130°53'0 0.0
2014-Aug-20 07:32S 12°29' E 130°53'0 0.0
2014-Aug-20 06:32S 12°29' E 130°53'0 0.0
2014-Aug-20 05:32S 12°29' E 130°53'0 0.0
2014-Aug-20 04:32S 12°29' E 130°53'0 0.0
2014-Aug-20 03:33S 12°29' E 130°53'7 7.4
2014-Aug-20 02:33S 12°25' E 130°47'1 1.4
2014-Aug-20 01:32S 12°24' E 130°46'0 0.0
2014-Aug-20 00:23S 12°24' E 130°46'0 0.0
2014-Aug-19 23:23S 12°24' E 130°46'0 0.0
2014-Aug-19 22:23S 12°24' E 130°46'0 0.1
2014-Aug-19 21:26S 12°24' E 130°46'0 0.0
2014-Aug-19 20:26S 12°24' E 130°46'0 0.0
2014-Aug-19 19:26S 12°24' E 130°46'0 0.0
2014-Aug-19 18:26S 12°24' E 130°46'0 0.0
2014-Aug-19 17:29S 12°24' E 130°46'0 0.0
2014-Aug-19 16:29S 12°24' E 130°46'0 0.0
2014-Aug-19 15:29S 12°24' E 130°46'0 0.0
2014-Aug-19 14:29S 12°24' E 130°46'0 0.0
2014-Aug-19 13:29S 12°24' E 130°46'5 5.9
2014-Aug-19 12:33S 12°20' E 130°42'1312.8
2014-Aug-19 11:33S 12°17' E 130°30'1312.6
2014-Aug-19 10:33S 12°13' E 130°17'1212.2
2014-Aug-19 09:33S 12°10' E 130°05'1212.0
2014-Aug-19 08:33S 12°07' E 129°53'1211.7
2014-Aug-19 07:33S 12°04' E 129°42'1211.6
2014-Aug-19 06:32S 12°01' E 129°30'1211.4
2014-Aug-19 05:31S 11°58' E 129°19'  
2014-Aug-12 13:32N 01°16' E 104°09'1110.8
2014-Aug-12 12:33N 01°15' E 103°58'6 5.5
2014-Aug-12 11:33N 01°15' E 103°53'1 0.5
2014-Aug-12 10:30N 01°15' E 103°52'0 0.1
2014-Aug-12 09:33N 01°15' E 103°53'0 0.0
2014-Aug-12 08:33N 01°15' E 103°53'0 0.0
2014-Aug-12 07:33N 01°15' E 103°53'0 0.0
2014-Aug-12 06:33N 01°15' E 103°53'0 0.0
2014-Aug-12 05:27N 01°15' E 103°53'0 0.0
2014-Aug-12 04:33N 01°15' E 103°53'0 0.0
2014-Aug-12 03:30N 01°15' E 103°53'0 0.0
2014-Aug-12 02:24N 01°15' E 103°53'0 0.0
2014-Aug-12 01:24N 01°15' E 103°53'0 0.0
2014-Aug-12 00:24N 01°15' E 103°53'0 0.0
2014-Aug-11 23:33N 01°15' E 103°53'0 0.1
2014-Aug-11 22:33N 01°15' E 103°53'1 1.4
2014-Aug-11 21:33N 01°14' E 103°54'7 6.7
2014-Aug-11 20:33N 01°16' E 104°00'5 4.6
2014-Aug-11 19:33N 01°16' E 104°05'  
Track history (hours):
 
Tides and Currents Weather Stations Pressure Air Temp Water Temp Dewpoint Dewpoint Depression Visibility Wind Speed Wind Dir Waves Ship Positions

MV Finola

Last reported at 2014-Aug-21 05:32 UTC. Time now 2014-Aug-21 06:21 UTC.
Position S 12°11' E 130°07'.

Length 86 m; draft 3.5 m.

Type: Cargo ship. MMSI: 219483000.

Date/timePositionNaut miles runAvg speedWind from/ knotsBaromVisibWave heightAir tempDewpointWater temp
2014-Aug-21 05:32S 12°11' E 130°07'1111.4
2014-Aug-21 04:33S 12°14' E 130°18'1111.4
2014-Aug-21 03:33S 12°16' E 130°29'1111.2
2014-Aug-21 02:33S 12°19' E 130°40'1111.0
2014-Aug-21 01:33S 12°27' E 130°48'5 5.4
2014-Aug-21 00:33S 12°29' E 130°53'0 0.0
2014-Aug-20 23:33S 12°29' E 130°53'0 0.0
2014-Aug-20 22:33S 12°29' E 130°53'0 0.0
2014-Aug-20 21:24S 12°29' E 130°53'0 0.0
2014-Aug-20 20:24S 12°29' E 130°53'0 0.0
2014-Aug-20 19:24S 12°29' E 130°53'0 0.0
2014-Aug-20 18:27S 12°29' E 130°53'0 0.0
2014-Aug-20 17:26S 12°29' E 130°53'0 0.0
2014-Aug-20 16:26S 12°29' E 130°53'0 0.0
2014-Aug-20 15:26S 12°29' E 130°53'0 0.0
2014-Aug-20 14:23S 12°29' E 130°53'0 0.0
2014-Aug-20 13:29S 12°29' E 130°53'0 0.0
2014-Aug-20 12:29S 12°29' E 130°53'0 0.0
2014-Aug-20 11:29S 12°29' E 130°53'0 0.0
2014-Aug-20 10:29S 12°29' E 130°53'0 0.0
2014-Aug-20 09:32S 12°29' E 130°53'0 0.0
2014-Aug-20 08:32S 12°29' E 130°53'0 0.0
2014-Aug-20 07:32S 12°29' E 130°53'0 0.0
2014-Aug-20 06:32S 12°29' E 130°53'0 0.0
2014-Aug-20 05:32S 12°29' E 130°53'0 0.0
2014-Aug-20 04:32S 12°29' E 130°53'0 0.0
2014-Aug-20 03:33S 12°29' E 130°53'7 7.4
2014-Aug-20 02:33S 12°25' E 130°47'1 1.4
2014-Aug-20 01:32S 12°24' E 130°46'0 0.0
2014-Aug-20 00:23S 12°24' E 130°46'0 0.0
2014-Aug-19 23:23S 12°24' E 130°46'0 0.0
2014-Aug-19 22:23S 12°24' E 130°46'0 0.1
2014-Aug-19 21:26S 12°24' E 130°46'0 0.0
2014-Aug-19 20:26S 12°24' E 130°46'0 0.0
2014-Aug-19 19:26S 12°24' E 130°46'0 0.0
2014-Aug-19 18:26S 12°24' E 130°46'0 0.0
2014-Aug-19 17:29S 12°24' E 130°46'0 0.0
2014-Aug-19 16:29S 12°24' E 130°46'0 0.0
2014-Aug-19 15:29S 12°24' E 130°46'0 0.0
2014-Aug-19 14:29S 12°24' E 130°46'0 0.0
2014-Aug-19 13:29S 12°24' E 130°46'5 5.9
2014-Aug-19 12:33S 12°20' E 130°42'1312.8
2014-Aug-19 11:33S 12°17' E 130°30'1312.6
2014-Aug-19 10:33S 12°13' E 130°17'1212.2
2014-Aug-19 09:33S 12°10' E 130°05'1212.0
2014-Aug-19 08:33S 12°07' E 129°53'1211.7
2014-Aug-19 07:33S 12°04' E 129°42'1211.6
2014-Aug-19 06:32S 12°01' E 129°30'1211.4
2014-Aug-19 05:31S 11°58' E 129°19'  
2014-Aug-12 13:32N 01°16' E 104°09'1110.8
2014-Aug-12 12:33N 01°15' E 103°58'6 5.5
2014-Aug-12 11:33N 01°15' E 103°53'1 0.5
2014-Aug-12 10:30N 01°15' E 103°52'0 0.1
2014-Aug-12 09:33N 01°15' E 103°53'0 0.0
2014-Aug-12 08:33N 01°15' E 103°53'0 0.0
2014-Aug-12 07:33N 01°15' E 103°53'0 0.0
2014-Aug-12 06:33N 01°15' E 103°53'0 0.0
2014-Aug-12 05:27N 01°15' E 103°53'0 0.0
2014-Aug-12 04:33N 01°15' E 103°53'0 0.0
2014-Aug-12 03:30N 01°15' E 103°53'0 0.0
2014-Aug-12 02:24N 01°15' E 103°53'0 0.0
2014-Aug-12 01:24N 01°15' E 103°53'0 0.0
2014-Aug-12 00:24N 01°15' E 103°53'0 0.0
2014-Aug-11 23:33N 01°15' E 103°53'0 0.1
2014-Aug-11 22:33N 01°15' E 103°53'1 1.4
2014-Aug-11 21:33N 01°14' E 103°54'7 6.7
2014-Aug-11 20:33N 01°16' E 104°00'5 4.6
2014-Aug-11 19:33N 01°16' E 104°05'  

Dump ship's entire track history